Aérodrome :
LOGIN :

S'inscrire | Disclaimer

   EN    FR    IT 

 










Légende :    VFR   VFR Marginal   IFR   IFR Intensif   IFR Très Intensif
Visi : 
Plafond : 
>= 8 km
>= 3000ft
5 à 8 km
1000 à 3000 ft
1500m à 5 km
500 à 1000 ft
800 à 1500m
200 à 500 ft
< 800m
< 200 ft
Symboles :   Orages  Brouillard  Fortes neiges  Fortes précipitations  Vent > 20 kt
SIGMETs :   Divers  Orages  Givrage  Turbulence  Onde Orograph.  Cendres Volcan.






- Altitude de l'aérodrome : 353 ft
- Code IATA : CND


LRCK - Constanta

DERNIER METAR :
  • 151400Z 28008KT 9999 FEW020 01/M02 Q1014 NOSIG

METARs EXPIRÉS :
  • 151330Z 27008KT 9999 FEW019 01/M03 Q1014 NOSIG
  • 151300Z 27009KT 9999 SCT019 02/M02 Q1014 NOSIG
  • 151230Z 29007KT 9999 FEW030 02/M02 Q1013 NOSIG
  • 151200Z 30005KT 260V330 CAVOK 02/M02 Q1013 NOSIG
  • 151130Z 27009KT 8000 FEW010 02/M01 Q1013 NOSIG

TAF TAF LRCK
Valide du 15 à 12h jusqu'au 16 à 12h UTC


151100Z 1512/1612 27010KT CAVOK
BECMG 1520/1522 VRB04KT
BECMG 1521/1523 5000 BR
BECMG 1600/1602 3000 BR BKN010
PROB30
TEMPO 1602/1606 1500 BR OVC005
BECMG 1606/1608 5000 -SN
PROB30
TEMPO 1608/1612 3000 -SN BR



MET'MAP, la Météo Aéronautique d'un coup d'oeil ! - Copyright ORBIFLY Décembre 2007 - Disclaimer

ORBIFLY MET'MAP TEAM :

Programmation & Développement : Alexandra Zaïnal
Sur une idée originale de : Baudouin d'Aumeries
Assistance à la programmation : Marc-Olivier Méhu
Soutien technique & logistique : Manuel Goepfert

Contact : metmap@orbifly.com




SOURCES & CREDITS :

   NOAA